createdAt,value
2022-09-06T00:03:52.541Z,3.63
2022-09-06T00:09:23.677Z,3.70
2022-09-06T00:14:54.878Z,3.75
2022-09-06T00:20:27.618Z,3.70
2022-09-06T00:26:03.294Z,3.87
2022-09-06T00:31:35.661Z,3.70
2022-09-06T00:37:07.031Z,3.92
2022-09-06T00:42:38.046Z,3.70
2022-09-06T00:48:09.852Z,3.90
2022-09-06T00:53:40.511Z,3.72
2022-09-06T00:59:11.405Z,3.65
2022-09-06T01:04:44.194Z,3.95
2022-09-06T01:16:41.782Z,3.92
2022-09-06T01:22:43.625Z,4.15
2022-09-06T01:28:42.105Z,4.05
2022-09-06T01:34:24.878Z,3.72
2022-09-06T01:39:56.214Z,4.07
2022-09-06T01:45:53.920Z,4.53
2022-09-06T01:51:44.280Z,4.30
2022-09-06T01:57:37.050Z,3.90
2022-09-06T02:03:23.139Z,4.00
2022-09-06T02:09:17.809Z,3.75
2022-09-06T02:14:48.616Z,4.38
2022-09-06T02:20:23.322Z,4.30
2022-09-06T02:25:57.989Z,4.03
2022-09-06T02:31:40.428Z,4.50
2022-09-06T02:37:12.142Z,4.40
2022-09-06T02:42:43.338Z,4.00
2022-09-06T02:48:14.759Z,3.47
2022-09-06T02:53:45.749Z,4.10
2022-09-06T02:59:16.631Z,5.00
2022-09-06T03:04:47.485Z,4.53
2022-09-06T03:10:18.779Z,4.05
2022-09-06T03:15:54.248Z,3.95
2022-09-06T03:21:25.233Z,3.70
2022-09-06T03:26:56.005Z,3.72
2022-09-06T03:32:26.949Z,3.95
2022-09-06T03:37:57.684Z,4.18
2022-09-06T03:43:29.052Z,3.85
2022-09-06T03:49:02.081Z,4.07
2022-09-06T03:54:33.259Z,4.20
2022-09-06T04:00:04.788Z,3.83
2022-09-06T04:05:46.585Z,3.53
2022-09-06T04:11:17.620Z,4.30
2022-09-06T04:16:49.462Z,3.97
2022-09-06T04:22:20.755Z,4.43
2022-09-06T04:27:51.737Z,4.25
2022-09-06T04:33:26.090Z,4.07
2022-09-06T04:38:56.979Z,4.15
2022-09-06T04:44:28.207Z,3.80
2022-09-06T04:49:59.179Z,3.65
2022-09-06T04:55:31.478Z,3.67
2022-09-06T05:01:03.720Z,4.22
2022-09-06T05:06:36.187Z,4.05
2022-09-06T05:12:08.045Z,3.78
2022-09-06T05:17:39.041Z,3.97
2022-09-06T05:23:10.019Z,3.97
2022-09-06T05:28:40.838Z,3.83
2022-09-06T05:34:13.630Z,3.80
2022-09-06T05:39:44.951Z,4.10
2022-09-06T05:45:17.165Z,3.95
2022-09-06T05:50:48.146Z,4.07
2022-09-06T05:56:19.518Z,3.88
2022-09-06T06:01:52.421Z,3.72
2022-09-06T06:07:23.484Z,3.42
2022-09-06T06:12:54.334Z,4.15
2022-09-06T06:18:25.280Z,4.20
2022-09-06T06:24:04.931Z,3.83
2022-09-06T06:29:36.128Z,3.92
2022-09-06T06:35:09.144Z,4.00
2022-09-06T06:40:40.159Z,4.00
2022-09-06T06:46:16.352Z,3.95
2022-09-06T06:51:47.986Z,3.65
2022-09-06T06:57:19.659Z,3.88
2022-09-06T07:02:50.636Z,3.90
2022-09-06T07:08:21.663Z,3.90
2022-09-06T07:13:52.892Z,4.00
2022-09-06T07:25:21.149Z,3.83
2022-09-06T07:30:54.670Z,3.63
2022-09-06T07:36:25.864Z,3.83
2022-09-06T07:41:57.065Z,4.28
2022-09-06T07:53:30.893Z,3.90
2022-09-06T08:04:34.082Z,3.90
2022-09-06T08:10:05.435Z,3.97
2022-09-06T08:15:36.194Z,4.03
2022-09-06T08:21:13.134Z,4.22
2022-09-06T08:26:44.563Z,4.20
2022-09-06T08:32:15.785Z,4.10
2022-09-06T08:37:46.791Z,4.50
2022-09-06T08:43:22.939Z,3.67
2022-09-06T08:48:55.070Z,3.95
2022-09-06T08:54:40.521Z,4.30
2022-09-06T09:00:13.791Z,4.07
2022-09-06T09:05:48.619Z,4.28
2022-09-06T09:11:22.082Z,3.92
2022-09-06T09:16:54.878Z,4.10
2022-09-06T09:27:59.538Z,3.83
2022-09-06T09:33:34.064Z,4.13
2022-09-06T09:39:11.918Z,3.83
2022-09-06T09:44:44.774Z,4.57
2022-09-06T09:50:24.682Z,4.10
2022-09-06T09:55:57.977Z,4.53
2022-09-06T10:01:33.942Z,4.13
2022-09-06T10:07:14.059Z,4.47
2022-09-06T10:12:44.917Z,3.75
2022-09-06T10:18:31.103Z,4.50
2022-09-06T10:24:30.433Z,4.38
2022-09-06T10:30:07.717Z,4.78
2022-09-06T10:35:38.851Z,4.53
2022-09-06T10:41:33.298Z,4.40
2022-09-06T10:47:17.001Z,4.47
2022-09-06T10:52:48.661Z,4.15
2022-09-06T10:58:27.659Z,4.90
2022-09-06T11:04:04.564Z,4.50
2022-09-06T11:09:50.855Z,4.50
2022-09-06T11:15:23.224Z,4.40
2022-09-06T11:21:20.362Z,4.57
2022-09-06T11:27:29.195Z,4.35
2022-09-06T11:33:25.887Z,4.55
2022-09-06T11:39:02.108Z,4.47
2022-09-06T11:44:54.281Z,4.53
2022-09-06T11:50:28.230Z,4.85
2022-09-06T11:56:02.573Z,4.75
2022-09-06T12:01:35.725Z,4.35
2022-09-06T12:07:11.763Z,4.95
2022-09-06T12:12:42.898Z,5.03
2022-09-06T12:18:48.771Z,4.72
2022-09-06T12:24:34.803Z,5.07
2022-09-06T12:30:07.797Z,5.13
2022-09-06T12:41:32.171Z,4.90
2022-09-06T12:47:12.174Z,5.30
2022-09-06T12:52:52.241Z,5.00
2022-09-06T12:58:28.858Z,5.50
2022-09-06T13:04:05.191Z,4.88
2022-09-06T13:09:37.564Z,4.63
2022-09-06T13:20:43.733Z,4.95
2022-09-06T13:26:15.379Z,4.63
2022-09-06T13:31:55.015Z,5.20
2022-09-06T13:37:31.670Z,4.60
2022-09-06T13:43:03.391Z,4.82
2022-09-06T13:48:34.611Z,4.38
2022-09-06T13:54:07.908Z,4.60
2022-09-06T13:59:39.497Z,4.90
2022-09-06T14:05:10.455Z,4.47
2022-09-06T14:10:42.580Z,4.00
2022-09-06T14:16:13.978Z,4.55
2022-09-06T14:21:45.219Z,4.55
2022-09-06T14:27:17.617Z,4.28
2022-09-06T14:32:48.457Z,4.57
2022-09-06T14:38:19.668Z,4.72
2022-09-06T14:43:53.172Z,4.40
2022-09-06T14:49:25.401Z,4.20
2022-09-06T14:54:56.371Z,4.60
2022-09-06T15:00:27.367Z,4.25
2022-09-06T15:05:58.214Z,3.95
2022-09-06T15:11:44.500Z,4.03
2022-09-06T15:17:15.900Z,4.65
2022-09-06T15:22:47.117Z,4.25
2022-09-06T15:28:22.412Z,4.40
2022-09-06T15:33:54.115Z,4.05
2022-09-06T15:39:25.561Z,4.50
2022-09-06T15:50:49.718Z,4.30
2022-09-06T15:56:20.283Z,4.22
2022-09-06T16:01:51.927Z,4.28
2022-09-06T16:07:24.245Z,4.53
2022-09-06T16:12:55.696Z,4.60
2022-09-06T16:18:26.960Z,4.35
2022-09-06T16:24:02.704Z,4.25
2022-09-06T16:29:33.816Z,4.18
2022-09-06T16:35:06.283Z,4.75
2022-09-06T16:46:08.892Z,4.22
2022-09-06T16:51:40.236Z,4.30
2022-09-06T16:57:11.048Z,4.10
2022-09-06T17:02:47.117Z,3.42
2022-09-06T17:08:18.685Z,2.80
2022-09-06T17:13:51.271Z,3.45
2022-09-06T17:19:22.533Z,3.35
2022-09-06T17:24:53.819Z,2.88
2022-09-06T17:30:25.751Z,3.20
2022-09-06T17:36:06.725Z,3.13
2022-09-06T17:41:40.529Z,3.58
2022-09-06T17:47:13.393Z,3.20
2022-09-06T17:52:44.968Z,2.97
2022-09-06T17:58:16.407Z,3.17
2022-09-06T18:03:48.025Z,2.97
2022-09-06T18:09:19.306Z,3.27
2022-09-06T18:14:50.552Z,3.10
2022-09-06T18:20:23.180Z,2.78
2022-09-06T18:26:05.583Z,3.03
2022-09-06T18:31:36.620Z,3.65
2022-09-06T18:37:08.925Z,3.10
2022-09-06T18:42:44.832Z,3.10
2022-09-06T18:48:16.825Z,2.95
2022-09-06T18:53:48.602Z,3.20
2022-09-06T18:59:20.157Z,3.50
2022-09-06T19:04:54.482Z,3.40
2022-09-06T19:10:25.744Z,3.15
2022-09-06T19:15:58.549Z,3.67
2022-09-06T19:27:01.599Z,3.03
2022-09-06T19:32:34.347Z,3.13
2022-09-06T19:38:05.066Z,3.13
2022-09-06T19:43:36.528Z,3.35
2022-09-06T19:49:10.526Z,2.90
2022-09-06T19:54:42.844Z,3.28
2022-09-06T20:00:14.983Z,3.00
2022-09-06T20:05:45.852Z,3.60
2022-09-06T20:11:16.830Z,3.28
2022-09-06T20:16:50.482Z,3.35
2022-09-06T20:22:21.953Z,3.30
2022-09-06T20:27:53.033Z,2.88
2022-09-06T20:33:24.066Z,3.05
2022-09-06T20:38:55.504Z,3.30
2022-09-06T20:44:26.540Z,3.20
2022-09-06T20:49:57.457Z,3.20
2022-09-06T20:55:28.702Z,3.30
2022-09-06T21:01:00.335Z,3.25
2022-09-06T21:06:34.613Z,3.33
2022-09-06T21:12:06.128Z,3.13
2022-09-06T21:17:39.092Z,3.30
2022-09-06T21:23:10.426Z,3.60
2022-09-06T21:28:41.774Z,3.15
2022-09-06T21:34:16.900Z,3.10
2022-09-06T21:39:49.527Z,3.20
2022-09-06T21:45:20.629Z,3.28
2022-09-06T21:50:51.798Z,2.88
2022-09-06T21:56:24.035Z,3.05
2022-09-06T22:01:55.215Z,3.33
2022-09-06T22:07:26.677Z,3.15
2022-09-06T22:12:57.617Z,2.88
2022-09-06T22:18:28.640Z,3.28
2022-09-06T22:24:02.782Z,3.22
2022-09-06T22:29:33.766Z,3.40
2022-09-06T22:35:06.173Z,3.75
2022-09-06T22:40:37.212Z,2.80
2022-09-06T22:46:10.063Z,3.17
2022-09-06T22:51:41.669Z,3.35
2022-09-06T22:57:12.886Z,3.50
2022-09-06T23:02:44.231Z,3.60
2022-09-06T23:08:15.936Z,3.03
2022-09-06T23:13:47.455Z,3.65
2022-09-06T23:19:18.374Z,3.38
2022-09-06T23:24:49.840Z,3.60
2022-09-06T23:30:21.261Z,3.65
2022-09-06T23:35:55.970Z,3.38
2022-09-06T23:41:26.938Z,3.63
2022-09-06T23:46:57.984Z,3.47
2022-09-06T23:52:29.502Z,3.45
2022-09-06T23:58:00.826Z,3.75
